Time;durP1;ratioP1;P1;durP2;ratioP2;P2;SDS_P1;SDS_P2;PMS_P1;PMS_P2;Temp;Humidity;BMP_temperature;BMP_pressure;BME280_temperature;BME280_humidity;BME280_pressure;Samples;Min_cycle;Max_cycle;Signal;HPM_P1;HPM_P2
2023/04/12 00:01:56;;;;;;;8.98;2.40;;;;;;;;;;5082380;28;20904;-60
2023/04/12 00:04:27;;;;;;;7.10;3.33;;;;;;;;;;5082850;28;20111;-60
2023/04/12 00:06:53;;;;;;;7.60;3.72;;;;;;;;;;5084352;28;20052;-60
2023/04/12 00:09:19;;;;;;;12.60;3.17;;;;;;;;;;5084033;28;20566;-60
2023/04/12 00:11:46;;;;;;;7.95;3.75;;;;;;;;;;5082927;28;20044;-61
2023/04/12 00:14:12;;;;;;;9.65;3.45;;;;;;;;;;5082014;28;20067;-60
2023/04/12 00:16:38;;;;;;;8.73;2.70;;;;;;;;;;5081516;28;20044;-60
2023/04/12 00:19:05;;;;;;;8.38;2.45;;;;;;;;;;5085641;28;20539;-60
2023/04/12 00:21:31;;;;;;;10.77;3.90;;;;;;;;;;5081711;28;20530;-60
2023/04/12 00:23:57;;;;;;;8.77;2.70;;;;;;;;;;5085649;28;20056;-60
2023/04/12 00:26:26;;;;;;;12.18;3.70;;;;;;;;;;5083726;28;20056;-60
2023/04/12 00:28:53;;;;;;;9.88;3.45;;;;;;;;;;5081148;28;20041;-60
2023/04/12 00:31:19;;;;;;;7.47;3.10;;;;;;;;;;5083044;28;20043;-60
2023/04/12 00:33:45;;;;;;;5.97;3.08;;;;;;;;;;5083390;28;20476;-60
2023/04/12 00:36:11;;;;;;;7.93;2.65;;;;;;;;;;5081316;28;20572;-60
2023/04/12 00:38:37;;;;;;;6.78;2.55;;;;;;;;;;5083592;28;20054;-60
2023/04/12 00:41:03;;;;;;;14.27;2.97;;;;;;;;;;5083636;28;20832;-60
2023/04/12 00:43:29;;;;;;;8.10;3.22;;;;;;;;;;5083503;28;20163;-60
2023/04/12 00:45:56;;;;;;;7.30;2.60;;;;;;;;;;5079528;28;20060;-60
2023/04/12 00:48:26;;;;;;;10.02;3.38;;;;;;;;;;5083010;28;20046;-60
2023/04/12 00:50:56;;;;;;;9.60;2.67;;;;;;;;;;5082474;28;20036;-60
2023/04/12 00:53:22;;;;;;;9.02;2.20;;;;;;;;;;5082481;28;20131;-60
2023/04/12 00:55:49;;;;;;;10.68;3.03;;;;;;;;;;5081030;28;20085;-60
2023/04/12 00:58:16;;;;;;;8.88;2.67;;;;;;;;;;5082773;28;20051;-59
2023/04/12 01:00:49;;;;;;;5.03;1.63;;;;;;;;;;5081350;28;20044;-60
2023/04/12 01:03:26;;;;;;;7.13;2.38;;;;;;;;;;5083303;28;20051;-60
2023/04/12 01:06:12;;;;;;;6.30;1.95;;;;;;;;;;5082483;28;20124;-60
2023/04/12 01:08:39;;;;;;;4.95;2.10;;;;;;;;;;5082934;28;20056;-60
2023/04/12 01:11:13;;;;;;;4.18;1.65;;;;;;;;;;5083311;27;20565;-60
2023/04/12 01:13:45;;;;;;;8.13;3.42;;;;;;;;;;5081612;28;20137;-60
2023/04/12 01:16:21;;;;;;;13.15;2.53;;;;;;;;;;5081637;28;20046;-60
2023/04/12 01:18:50;;;;;;;6.57;2.67;;;;;;;;;;5081262;28;20769;-60
2023/04/12 01:21:18;;;;;;;7.63;3.92;;;;;;;;;;5082771;27;20048;-60
2023/04/12 01:23:56;;;;;;;9.00;2.97;;;;;;;;;;5081419;28;20144;-60
2023/04/12 01:26:34;;;;;;;6.43;2.60;;;;;;;;;;5083236;28;20075;-60
2023/04/12 01:29:02;;;;;;;8.30;2.33;;;;;;;;;;5068035;28;20040;-60
2023/04/12 01:31:29;;;;;;;6.10;1.90;;;;;;;;;;5079504;27;20036;-60
2023/04/12 01:33:56;;;;;;;7.90;4.25;;;;;;;;;;5084458;27;20191;-60
2023/04/12 01:36:23;;;;;;;5.15;1.98;;;;;;;;;;5083288;28;20085;-60
2023/04/12 01:38:49;;;;;;;4.25;1.90;;;;;;;;;;5083332;28;20044;-60
2023/04/12 01:41:15;;;;;;;5.78;1.90;;;;;;;;;;5083374;28;20071;-60
2023/04/12 01:43:42;;;;;;;6.13;1.88;;;;;;;;;;5082157;28;20044;-60
2023/04/12 01:46:10;;;;;;;3.25;1.73;;;;;;;;;;5081346;28;20051;-60
2023/04/12 01:48:36;;;;;;;3.30;1.40;;;;;;;;;;5084160;28;20575;-60
2023/04/12 01:51:06;;;;;;;5.75;1.75;;;;;;;;;;5081638;28;20594;-60
2023/04/12 01:53:51;;;;;;;3.35;1.50;;;;;;;;;;5081508;28;20046;-60
2023/04/12 01:56:19;;;;;;;5.40;2.05;;;;;;;;;;5082086;28;20446;-60
2023/04/12 01:58:47;;;;;;;4.22;1.98;;;;;;;;;;5084279;27;20055;-60
2023/04/12 02:01:14;;;;;;;2.22;1.25;;;;;;;;;;5081084;28;20528;-60
2023/04/12 02:03:43;;;;;;;6.68;1.65;;;;;;;;;;5083861;28;20040;-60
2023/04/12 02:06:10;;;;;;;3.65;1.55;;;;;;;;;;5084549;28;20930;-60
2023/04/12 02:08:36;;;;;;;3.50;1.38;;;;;;;;;;5081977;28;20043;-60
2023/04/12 02:11:13;;;;;;;2.28;1.30;;;;;;;;;;5082864;28;20036;-60
2023/04/12 02:13:39;;;;;;;1.95;1.58;;;;;;;;;;5082565;28;20384;-59
2023/04/12 02:16:09;;;;;;;2.28;1.27;;;;;;;;;;5064889;28;20045;-60
2023/04/12 02:18:35;;;;;;;9.32;2.28;;;;;;;;;;5083008;28;20043;-60
2023/04/12 02:21:02;;;;;;;2.85;1.42;;;;;;;;;;5082902;27;20041;-60
2023/04/12 02:23:28;;;;;;;1.70;0.88;;;;;;;;;;5078252;28;20076;-60
2023/04/12 02:25:54;;;;;;;4.32;1.50;;;;;;;;;;5081210;28;20048;-60
2023/04/12 02:28:21;;;;;;;1.48;0.98;;;;;;;;;;5078366;28;20158;-60
2023/04/12 02:30:52;;;;;;;2.33;0.90;;;;;;;;;;5079939;27;20036;-60
2023/04/12 02:33:20;;;;;;;5.55;1.25;;;;;;;;;;5082597;28;20097;-60
2023/04/12 02:35:46;;;;;;;2.63;1.20;;;;;;;;;;5081423;28;20131;-60
2023/04/12 02:38:12;;;;;;;1.23;1.13;;;;;;;;;;5082241;28;20040;-60
2023/04/12 02:40:42;;;;;;;1.75;1.40;;;;;;;;;;5080220;28;20629;-60
2023/04/12 02:43:08;;;;;;;0.60;0.60;;;;;;;;;;5080730;28;20047;-59
2023/04/12 02:45:34;;;;;;;2.42;0.93;;;;;;;;;;5077701;28;20041;-60
2023/04/12 02:48:01;;;;;;;1.42;0.93;;;;;;;;;;5080252;28;20516;-60
2023/04/12 02:50:27;;;;;;;4.50;1.42;;;;;;;;;;5081129;28;20791;-60
2023/04/12 02:52:53;;;;;;;4.93;1.13;;;;;;;;;;5082510;28;20056;-60
2023/04/12 02:55:19;;;;;;;3.85;1.10;;;;;;;;;;5056136;28;20045;-60
2023/04/12 02:57:46;;;;;;;0.70;0.70;;;;;;;;;;5081349;28;20055;-60
2023/04/12 03:00:14;;;;;;;1.15;0.70;;;;;;;;;;5079563;28;20036;-60
2023/04/12 03:02:40;;;;;;;2.10;1.05;;;;;;;;;;5081343;28;20044;-60
2023/04/12 03:05:06;;;;;;;2.45;0.88;;;;;;;;;;5082641;28;20159;-60
2023/04/12 03:07:32;;;;;;;2.15;0.55;;;;;;;;;;5078653;28;20036;-60
2023/04/12 03:09:58;;;;;;;1.80;1.13;;;;;;;;;;5082816;28;20518;-60
2023/04/12 03:12:24;;;;;;;2.03;1.02;;;;;;;;;;5080531;28;20071;-60
2023/04/12 03:14:50;;;;;;;2.33;0.90;;;;;;;;;;5080762;27;20052;-60
2023/04/12 03:17:17;;;;;;;2.50;0.90;;;;;;;;;;5080154;28;20093;-61
2023/04/12 03:19:43;;;;;;;3.28;0.68;;;;;;;;;;5081575;28;20040;-60
2023/04/12 03:22:09;;;;;;;2.15;0.65;;;;;;;;;;5084844;28;20044;-60
2023/04/12 03:24:36;;;;;;;2.33;0.95;;;;;;;;;;5085685;28;20051;-60
2023/04/12 03:27:02;;;;;;;1.13;0.65;;;;;;;;;;5084038;28;20531;-60
2023/04/12 03:29:28;;;;;;;2.30;0.52;;;;;;;;;;5085498;27;20075;-60
2023/04/12 03:31:56;;;;;;;1.08;0.70;;;;;;;;;;5083068;28;20032;-60
2023/04/12 03:34:23;;;;;;;0.45;0.40;;;;;;;;;;5084921;28;20532;-60
2023/04/12 03:36:50;;;;;;;1.95;0.70;;;;;;;;;;5081004;28;20071;-60
2023/04/12 03:39:16;;;;;;;1.13;0.75;;;;;;;;;;5067436;28;20042;-60
2023/04/12 03:41:42;;;;;;;1.00;0.60;;;;;;;;;;5083380;27;20596;-60
2023/04/12 03:44:08;;;;;;;1.52;0.50;;;;;;;;;;5084274;28;20079;-60
2023/04/12 03:46:34;;;;;;;1.17;0.50;;;;;;;;;;5081054;28;20055;-61
2023/04/12 03:49:00;;;;;;;6.22;0.82;;;;;;;;;;5085464;28;20040;-60
2023/04/12 03:51:29;;;;;;;0.35;0.35;;;;;;;;;;5083973;28;20048;-60
2023/04/12 03:53:55;;;;;;;1.17;0.40;;;;;;;;;;5085062;28;20416;-60
2023/04/12 03:56:21;;;;;;;0.65;0.40;;;;;;;;;;5082387;28;20530;-60
2023/04/12 03:58:47;;;;;;;0.63;0.63;;;;;;;;;;5084729;28;20044;-60
2023/04/12 04:01:16;;;;;;;2.08;0.40;;;;;;;;;;5084407;28;20047;-60
2023/04/12 04:03:43;;;;;;;1.20;0.57;;;;;;;;;;5083594;28;20155;-60
2023/04/12 04:06:10;;;;;;;0.57;0.50;;;;;;;;;;5082722;27;20495;-60
2023/04/12 04:08:36;;;;;;;1.48;0.73;;;;;;;;;;5083685;28;20040;-60
2023/04/12 04:11:03;;;;;;;1.23;0.77;;;;;;;;;;5083255;28;20028;-60
2023/04/12 04:13:29;;;;;;;0.98;0.63;;;;;;;;;;5082352;28;20541;-60
2023/04/12 04:15:59;;;;;;;1.20;0.65;;;;;;;;;;5082675;28;20570;-60
2023/04/12 04:18:25;;;;;;;3.20;0.50;;;;;;;;;;5083672;27;20191;-59
2023/04/12 04:20:51;;;;;;;0.98;0.55;;;;;;;;;;5084458;28;20071;-60
2023/04/12 04:23:17;;;;;;;1.65;0.70;;;;;;;;;;5083854;27;20048;-60
2023/04/12 04:25:44;;;;;;;1.05;0.50;;;;;;;;;;5081973;28;20344;-60
2023/04/12 04:28:10;;;;;;;2.60;0.70;;;;;;;;;;5082198;28;20044;-59
2023/04/12 04:30:39;;;;;;;0.85;0.70;;;;;;;;;;5081635;28;20036;-59
2023/04/12 04:33:05;;;;;;;1.23;0.65;;;;;;;;;;5083582;28;20539;-59
2023/04/12 04:35:32;;;;;;;0.63;0.50;;;;;;;;;;5082505;28;20048;-60
2023/04/12 04:38:00;;;;;;;1.52;0.47;;;;;;;;;;5085874;28;20055;-59
2023/04/12 04:40:26;;;;;;;1.08;0.50;;;;;;;;;;5082638;28;20663;-59
2023/04/12 04:42:56;;;;;;;0.88;0.47;;;;;;;;;;5081647;28;20047;-60
2023/04/12 04:45:26;;;;;;;2.47;0.70;;;;;;;;;;5081855;28;20118;-60
2023/04/12 04:47:55;;;;;;;4.47;0.77;;;;;;;;;;5082951;28;20095;-60
2023/04/12 04:50:22;;;;;;;0.40;0.40;;;;;;;;;;5082398;28;20508;-61
2023/04/12 04:52:48;;;;;;;1.35;0.40;;;;;;;;;;5084251;28;20531;-60
2023/04/12 04:55:16;;;;;;;0.65;0.38;;;;;;;;;;5081902;28;20461;-60
2023/04/12 04:57:42;;;;;;;0.30;0.30;;;;;;;;;;5081430;27;20044;-60
2023/04/12 05:00:12;;;;;;;0.35;0.35;;;;;;;;;;5077426;28;20147;-60
2023/04/12 05:02:41;;;;;;;2.42;0.55;;;;;;;;;;5082083;27;20155;-60
2023/04/12 05:05:07;;;;;;;1.48;0.50;;;;;;;;;;5077074;28;20451;-60
2023/04/12 05:07:35;;;;;;;0.52;0.30;;;;;;;;;;5081764;28;20095;-60
2023/04/12 05:10:01;;;;;;;2.45;0.65;;;;;;;;;;5078939;28;20040;-59
2023/04/12 05:12:27;;;;;;;1.95;0.57;;;;;;;;;;5082230;28;20051;-59
2023/04/12 05:14:53;;;;;;;0.30;0.30;;;;;;;;;;5081556;28;20041;-59
2023/04/12 05:17:19;;;;;;;0.70;0.60;;;;;;;;;;5081811;28;20047;-60
2023/04/12 05:19:45;;;;;;;0.85;0.38;;;;;;;;;;5079198;28;20127;-59
2023/04/12 05:22:12;;;;;;;0.55;0.52;;;;;;;;;;5081476;28;20054;-63
2023/04/12 05:24:39;;;;;;;1.50;0.82;;;;;;;;;;5081706;28;20430;-60
2023/04/12 05:27:05;;;;;;;2.30;0.68;;;;;;;;;;5082050;28;20043;-60
2023/04/12 05:29:31;;;;;;;0.98;0.75;;;;;;;;;;5079833;28;20033;-60
2023/04/12 05:31:58;;;;;;;4.13;0.82;;;;;;;;;;5081955;28;20040;-59
2023/04/12 05:34:24;;;;;;;2.28;1.30;;;;;;;;;;5075420;28;20052;-59
2023/04/12 05:36:50;;;;;;;1.77;0.80;;;;;;;;;;5083077;28;20044;-61
2023/04/12 05:39:16;;;;;;;5.88;1.05;;;;;;;;;;5084246;28;20851;-62
2023/04/12 05:41:42;;;;;;;3.25;1.02;;;;;;;;;;5082814;28;20056;-62
2023/04/12 05:44:08;;;;;;;2.80;1.40;;;;;;;;;;5083556;28;20596;-62
2023/04/12 05:46:35;;;;;;;2.42;1.58;;;;;;;;;;5082303;28;20428;-61
2023/04/12 05:49:01;;;;;;;3.90;1.20;;;;;;;;;;5083639;28;20040;-63
2023/04/12 05:51:27;;;;;;;10.52;1.88;;;;;;;;;;5084429;28;20048;-62
2023/04/12 05:53:53;;;;;;;4.43;1.27;;;;;;;;;;5067956;28;20036;-61
2023/04/12 05:56:19;;;;;;;6.55;1.40;;;;;;;;;;5083422;28;20123;-62
2023/04/12 05:58:46;;;;;;;2.55;1.30;;;;;;;;;;5084570;28;20658;-62
2023/04/12 06:01:12;;;;;;;7.50;3.40;;;;;;;;;;5080242;28;20044;-62
2023/04/12 06:03:40;;;;;;;3.92;2.05;;;;;;;;;;5076538;28;20045;-61
2023/04/12 06:06:06;;;;;;;3.17;1.25;;;;;;;;;;5080214;28;20087;-62
2023/04/12 06:08:33;;;;;;;2.38;0.88;;;;;;;;;;5083948;28;21671;-61
2023/04/12 06:10:59;;;;;;;3.15;1.60;;;;;;;;;;5080917;28;20050;-62
2023/04/12 06:13:25;;;;;;;3.42;2.40;;;;;;;;;;5079267;28;20210;-60
2023/04/12 06:15:51;;;;;;;3.50;1.10;;;;;;;;;;5063628;28;20040;-62
2023/04/12 06:18:17;;;;;;;1.42;0.88;;;;;;;;;;5077209;28;20040;-62
2023/04/12 06:20:43;;;;;;;2.63;1.20;;;;;;;;;;5080725;28;20537;-62
2023/04/12 06:23:09;;;;;;;7.97;2.50;;;;;;;;;;5075130;28;20098;-62
2023/04/12 06:25:37;;;;;;;9.45;2.03;;;;;;;;;;5076485;28;20051;-62
2023/04/12 06:28:03;;;;;;;5.28;1.40;;;;;;;;;;5080283;28;20170;-61
2023/04/12 06:30:30;;;;;;;7.70;1.73;;;;;;;;;;5094062;27;20048;-62
2023/04/12 06:32:56;;;;;;;3.60;0.73;;;;;;;;;;5079626;28;20036;-60
2023/04/12 06:35:22;;;;;;;3.08;0.90;;;;;;;;;;5078125;28;20044;-61
2023/04/12 06:37:48;;;;;;;2.28;1.00;;;;;;;;;;5079436;28;20150;-60
2023/04/12 06:40:15;;;;;;;9.57;2.42;;;;;;;;;;5074391;28;20111;-60
2023/04/12 06:42:41;;;;;;;2.08;1.25;;;;;;;;;;5075191;28;20531;-60
2023/04/12 06:45:07;;;;;;;4.63;1.23;;;;;;;;;;5078305;28;20631;-62
2023/04/12 06:47:33;;;;;;;4.22;1.20;;;;;;;;;;5079457;28;20051;-61
2023/04/12 06:49:59;;;;;;;4.93;1.52;;;;;;;;;;5077510;28;20540;-61
2023/04/12 06:52:25;;;;;;;7.20;1.30;;;;;;;;;;5076611;28;20103;-61
2023/04/12 06:54:52;;;;;;;5.07;2.08;;;;;;;;;;5077507;28;20447;-61
2023/04/12 06:57:18;;;;;;;5.03;1.75;;;;;;;;;;5076283;28;20107;-61
2023/04/12 06:59:44;;;;;;;5.68;1.45;;;;;;;;;;5083113;28;20048;-61
2023/04/12 07:02:10;;;;;;;6.70;2.15;;;;;;;;;;5085578;28;20047;-61
2023/04/12 07:04:36;;;;;;;2.60;1.27;;;;;;;;;;5083809;28;20493;-61
2023/04/12 07:07:03;;;;;;;4.00;1.25;;;;;;;;;;5085493;28;20044;-61
2023/04/12 07:09:32;;;;;;;9.88;1.70;;;;;;;;;;5084808;28;20635;-61
2023/04/12 07:11:59;;;;;;;8.40;3.15;;;;;;;;;;5085239;28;20216;-61
2023/04/12 07:14:25;;;;;;;6.05;1.73;;;;;;;;;;5084533;28;20036;-61
2023/04/12 07:16:52;;;;;;;5.07;1.80;;;;;;;;;;5085155;28;20577;-61
2023/04/12 07:19:18;;;;;;;2.08;1.08;;;;;;;;;;5085293;28;20185;-61
2023/04/12 07:21:44;;;;;;;3.25;1.67;;;;;;;;;;5086234;28;20068;-61
2023/04/12 07:24:10;;;;;;;6.10;1.48;;;;;;;;;;5083254;28;20044;-61
2023/04/12 07:26:36;;;;;;;3.50;1.83;;;;;;;;;;5084422;28;20039;-60
2023/04/12 07:29:02;;;;;;;6.45;2.55;;;;;;;;;;5085977;28;20052;-60
2023/04/12 07:31:31;;;;;;;7.25;2.42;;;;;;;;;;5084117;28;20490;-60
2023/04/12 07:33:57;;;;;;;8.15;1.98;;;;;;;;;;5086316;28;20037;-60
2023/04/12 07:36:23;;;;;;;5.32;1.10;;;;;;;;;;5085450;28;20048;-61
2023/04/12 07:38:53;;;;;;;5.43;1.35;;;;;;;;;;5082811;28;20599;-60
2023/04/12 07:41:19;;;;;;;4.20;1.85;;;;;;;;;;5084606;28;20131;-60
2023/04/12 07:43:45;;;;;;;4.38;1.25;;;;;;;;;;5085685;28;20550;-60
2023/04/12 07:46:12;;;;;;;3.45;1.52;;;;;;;;;;5083716;28;20692;-60
2023/04/12 07:48:38;;;;;;;2.75;1.35;;;;;;;;;;5084193;28;20041;-60
2023/04/12 07:51:04;;;;;;;3.97;1.88;;;;;;;;;;5084424;28;20930;-60
2023/04/12 07:53:30;;;;;;;2.05;1.13;;;;;;;;;;5085115;28;20029;-61
2023/04/12 07:55:56;;;;;;;3.60;1.20;;;;;;;;;;5082786;28;20407;-60
2023/04/12 07:58:23;;;;;;;2.17;1.17;;;;;;;;;;5081707;28;22000;-60
2023/04/12 08:00:50;;;;;;;4.93;1.20;;;;;;;;;;5082598;28;20117;-60
2023/04/12 08:03:16;;;;;;;2.53;1.58;;;;;;;;;;5082039;28;20044;-61
2023/04/12 08:05:43;;;;;;;2.47;1.15;;;;;;;;;;5084943;28;20537;-60
2023/04/12 08:08:10;;;;;;;2.92;1.52;;;;;;;;;;5084184;28;20052;-60
2023/04/12 08:10:37;;;;;;;3.83;1.10;;;;;;;;;;5084626;28;20043;-61
2023/04/12 08:13:03;;;;;;;2.80;1.10;;;;;;;;;;5082751;28;20590;-60
2023/04/12 08:15:30;;;;;;;5.78;2.72;;;;;;;;;;5084781;28;20088;-60
2023/04/12 08:17:56;;;;;;;4.03;0.98;;;;;;;;;;5082976;27;20123;-59
2023/04/12 08:20:22;;;;;;;2.55;1.30;;;;;;;;;;5085534;28;20051;-60
2023/04/12 08:22:48;;;;;;;2.85;1.20;;;;;;;;;;5084213;28;20037;-59
2023/04/12 08:25:15;;;;;;;2.08;0.98;;;;;;;;;;5085048;28;20613;-60
2023/04/12 08:27:42;;;;;;;4.45;1.08;;;;;;;;;;5084062;27;20052;-60
2023/04/12 08:30:08;;;;;;;2.60;0.68;;;;;;;;;;5068738;28;20361;-59
2023/04/12 08:32:36;;;;;;;5.28;1.83;;;;;;;;;;5082192;28;20124;-59
2023/04/12 08:35:02;;;;;;;3.30;1.40;;;;;;;;;;5082631;28;20157;-59
2023/04/12 08:37:28;;;;;;;2.13;0.80;;;;;;;;;;5084110;28;20508;-59
2023/04/12 08:39:54;;;;;;;2.47;1.20;;;;;;;;;;5083735;28;20089;-60
2023/04/12 08:42:20;;;;;;;4.05;1.30;;;;;;;;;;5085295;28;20558;-60
2023/04/12 08:44:47;;;;;;;1.73;1.30;;;;;;;;;;5084375;28;20072;-60
2023/04/12 08:47:13;;;;;;;5.28;1.42;;;;;;;;;;5070542;28;20633;-60
2023/04/12 08:49:39;;;;;;;1.85;1.02;;;;;;;;;;5083983;28;20055;-59
2023/04/12 08:52:06;;;;;;;6.43;1.52;;;;;;;;;;5083844;28;20037;-58
2023/04/12 08:54:32;;;;;;;1.60;1.00;;;;;;;;;;5084242;28;20051;-59
2023/04/12 08:57:00;;;;;;;4.50;0.90;;;;;;;;;;5085535;28;20049;-59
2023/04/12 08:59:29;;;;;;;2.90;0.90;;;;;;;;;;5083524;27;20527;-59
2023/04/12 09:01:56;;;;;;;2.85;1.00;;;;;;;;;;5085096;28;20047;-59
2023/04/12 09:04:22;;;;;;;5.43;1.05;;;;;;;;;;5082868;28;20043;-59
2023/04/12 09:06:48;;;;;;;2.20;1.10;;;;;;;;;;5084250;28;20047;-59
2023/04/12 09:09:15;;;;;;;2.63;0.70;;;;;;;;;;5082236;28;20545;-59
2023/04/12 09:11:41;;;;;;;1.80;1.00;;;;;;;;;;5083365;28;20055;-59
2023/04/12 09:14:36;;;;;;;2.30;0.90;;;;;;;;;;5083376;28;20051;-59
2023/04/12 09:17:03;;;;;;;3.05;1.20;;;;;;;;;;5068838;28;20056;-60
2023/04/12 09:19:32;;;;;;;1.00;0.85;;;;;;;;;;5083930;28;20040;-59
2023/04/12 09:21:59;;;;;;;3.85;1.20;;;;;;;;;;5083199;28;21414;-59
2023/04/12 09:24:25;;;;;;;1.60;1.20;;;;;;;;;;5083274;28;20499;-59
2023/04/12 09:27:05;;;;;;;3.17;0.80;;;;;;;;;;5082209;28;20155;-59
2023/04/12 09:29:32;;;;;;;5.45;1.52;;;;;;;;;;5082321;28;20044;-59
2023/04/12 09:32:02;;;;;;;4.15;1.42;;;;;;;;;;5081490;28;20048;-59
2023/04/12 09:34:28;;;;;;;1.55;1.10;;;;;;;;;;5080791;28;20042;-59
2023/04/12 09:36:54;;;;;;;2.72;1.08;;;;;;;;;;5083455;28;20051;-59
2023/04/12 09:39:29;;;;;;;2.10;0.77;;;;;;;;;;5083191;28;20106;-58
2023/04/12 09:42:08;;;;;;;5.78;1.15;;;;;;;;;;5082323;28;20053;-59
2023/04/12 09:44:35;;;;;;;4.88;1.52;;;;;;;;;;5083861;28;20036;-59
2023/04/12 09:47:03;;;;;;;6.43;1.90;;;;;;;;;;5083009;28;20044;-59
2023/04/12 09:49:44;;;;;;;6.40;1.52;;;;;;;;;;5081494;28;20209;-59
2023/04/12 09:52:11;;;;;;;3.85;1.48;;;;;;;;;;5082563;28;20040;-60
2023/04/12 09:54:41;;;;;;;3.67;1.40;;;;;;;;;;5081477;28;20077;-60
2023/04/12 09:57:08;;;;;;;3.42;1.30;;;;;;;;;;5082163;28;20155;-59
2023/04/12 09:59:38;;;;;;;2.22;1.13;;;;;;;;;;5081169;28;20036;-59
2023/04/12 10:02:17;;;;;;;3.70;1.10;;;;;;;;;;5083121;28;20562;-59
2023/04/12 10:04:43;;;;;;;4.15;1.67;;;;;;;;;;5082557;28;20086;-58
2023/04/12 10:07:10;;;;;;;8.45;2.85;;;;;;;;;;5082158;28;20420;-60
2023/04/12 10:09:40;;;;;;;2.20;1.30;;;;;;;;;;5082499;28;20149;-58
2023/04/12 10:12:07;;;;;;;3.08;1.70;;;;;;;;;;5082512;28;20581;-58
2023/04/12 10:14:34;;;;;;;4.50;1.33;;;;;;;;;;5080470;28;20062;-60
2023/04/12 10:17:02;;;;;;;5.40;2.05;;;;;;;;;;5069235;28;20528;-59
2023/04/12 10:19:29;;;;;;;4.78;1.75;;;;;;;;;;5081187;28;20040;-59
2023/04/12 10:21:56;;;;;;;4.30;1.15;;;;;;;;;;5082694;28;20116;-58
2023/04/12 10:24:23;;;;;;;3.10;1.20;;;;;;;;;;5081425;28;20039;-60
2023/04/12 10:26:49;;;;;;;5.60;1.63;;;;;;;;;;5082682;28;20530;-60
2023/04/12 10:29:36;;;;;;;5.85;1.38;;;;;;;;;;5081129;28;20084;-60
2023/04/12 10:32:21;;;;;;;3.28;1.20;;;;;;;;;;5082830;27;20475;-59
2023/04/12 10:34:55;;;;;;;5.05;1.30;;;;;;;;;;5083180;28;20428;-59
2023/04/12 10:37:21;;;;;;;9.07;2.78;;;;;;;;;;5081684;28;20495;-59
2023/04/12 10:39:54;;;;;;;3.08;0.90;;;;;;;;;;5080341;28;20116;-59
2023/04/12 10:42:21;;;;;;;3.90;1.65;;;;;;;;;;5082054;28;20053;-59
2023/04/12 10:44:48;;;;;;;7.43;1.50;;;;;;;;;;5080728;28;20622;-60
2023/04/12 10:47:15;;;;;;;3.28;0.85;;;;;;;;;;5082988;28;20113;-60
2023/04/12 10:50:01;;;;;;;5.30;1.05;;;;;;;;;;5084542;28;20517;-59
2023/04/12 10:52:27;;;;;;;4.00;1.00;;;;;;;;;;5084093;28;20603;-59
2023/04/12 10:54:53;;;;;;;5.85;1.20;;;;;;;;;;5080859;28;20293;-59
2023/04/12 10:57:39;;;;;;;2.78;1.17;;;;;;;;;;5083498;28;20040;-59
2023/04/12 11:00:06;;;;;;;1.33;1.23;;;;;;;;;;5081315;28;20606;-59
2023/04/12 11:02:33;;;;;;;3.25;0.82;;;;;;;;;;5082801;28;20344;-58
2023/04/12 11:05:09;;;;;;;1.73;0.82;;;;;;;;;;5081549;28;20045;-59
2023/04/12 11:07:40;;;;;;;4.07;2.25;;;;;;;;;;5082023;28;20583;-59
2023/04/12 11:10:17;;;;;;;2.23;0.87;;;;;;;;;;5081538;28;20045;-59
2023/04/12 11:12:54;;;;;;;2.25;1.20;;;;;;;;;;5083973;28;20260;-59
2023/04/12 11:15:20;;;;;;;1.73;0.90;;;;;;;;;;5081356;28;21095;-59
2023/04/12 11:17:59;;;;;;;3.42;1.20;;;;;;;;;;5080836;27;20876;-59
2023/04/12 11:20:26;;;;;;;3.88;1.42;;;;;;;;;;5081774;28;20612;-60
2023/04/12 11:22:53;;;;;;;3.20;2.08;;;;;;;;;;5082040;28;20068;-59
2023/04/12 11:25:19;;;;;;;6.07;0.82;;;;;;;;;;5080831;28;20547;-59
2023/04/12 11:27:49;;;;;;;0.68;0.50;;;;;;;;;;5081559;28;20593;-60
2023/04/12 11:30:16;;;;;;;1.45;0.80;;;;;;;;;;5080772;28;20112;-58
2023/04/12 11:32:44;;;;;;;2.97;0.85;;;;;;;;;;5081816;28;20044;-59
2023/04/12 11:35:10;;;;;;;3.72;0.82;;;;;;;;;;5082628;28;20045;-59
2023/04/12 11:37:37;;;;;;;1.02;0.88;;;;;;;;;;5081363;28;20086;-59
2023/04/12 11:40:04;;;;;;;2.63;1.23;;;;;;;;;;5081013;28;20561;-60
2023/04/12 11:42:32;;;;;;;1.42;0.77;;;;;;;;;;5084246;28;20048;-60
2023/04/12 11:44:58;;;;;;;1.77;0.90;;;;;;;;;;5085810;28;20044;-59
2023/04/12 11:47:25;;;;;;;2.95;1.00;;;;;;;;;;5084907;28;20543;-59
2023/04/12 11:49:55;;;;;;;1.83;0.60;;;;;;;;;;5085086;27;20044;-60
2023/04/12 11:52:21;;;;;;;1.65;0.88;;;;;;;;;;5085721;28;20036;-59
2023/04/12 11:54:50;;;;;;;1.73;0.95;;;;;;;;;;5083235;28;20037;-59
2023/04/12 11:57:18;;;;;;;0.60;0.55;;;;;;;;;;5085321;28;20055;-59
2023/04/12 11:59:45;;;;;;;3.60;0.90;;;;;;;;;;5083592;28;20637;-59
2023/04/12 12:02:11;;;;;;;4.05;1.65;;;;;;;;;;5084911;28;20037;-60
2023/04/12 12:04:37;;;;;;;3.10;1.25;;;;;;;;;;5083949;28;20096;-60
2023/04/12 12:07:05;;;;;;;1.30;0.60;;;;;;;;;;5083396;28;20075;-59
2023/04/12 12:09:31;;;;;;;2.40;0.95;;;;;;;;;;5082837;27;20037;-60
2023/04/12 12:11:57;;;;;;;3.15;1.95;;;;;;;;;;5083963;28;20520;-59
2023/04/12 12:14:26;;;;;;;0.98;0.77;;;;;;;;;;5083175;28;20048;-59
2023/04/12 12:16:56;;;;;;;2.75;1.50;;;;;;;;;;5082744;28;20072;-61
2023/04/12 12:19:33;;;;;;;1.38;0.60;;;;;;;;;;5083324;28;20123;-59
2023/04/12 12:22:15;;;;;;;1.92;0.70;;;;;;;;;;5083842;28;20729;-60
2023/04/12 12:25:01;;;;;;;1.50;1.00;;;;;;;;;;5083498;28;20032;-59
2023/04/12 12:27:34;;;;;;;3.22;0.95;;;;;;;;;;5099297;27;20150;-60
2023/04/12 12:30:03;;;;;;;1.92;0.75;;;;;;;;;;5083300;28;20041;-59
2023/04/12 12:32:33;;;;;;;2.22;1.48;;;;;;;;;;5083516;28;20033;-59
2023/04/12 12:35:00;;;;;;;3.72;0.90;;;;;;;;;;5083758;28;20037;-59
2023/04/12 12:37:27;;;;;;;2.50;1.05;;;;;;;;;;5082896;28;20127;-59
2023/04/12 12:40:00;;;;;;;1.10;0.70;;;;;;;;;;5082918;28;20044;-59
2023/04/12 12:42:26;;;;;;;2.28;1.00;;;;;;;;;;5084356;27;20129;-60
2023/04/12 12:44:52;;;;;;;1.90;1.10;;;;;;;;;;5082718;28;20040;-59
2023/04/12 12:47:18;;;;;;;2.08;0.90;;;;;;;;;;5085294;28;20040;-58
2023/04/12 12:49:44;;;;;;;1.08;0.52;;;;;;;;;;5081958;28;20047;-59
2023/04/12 12:52:10;;;;;;;4.57;1.65;;;;;;;;;;5082779;28;20043;-58
2023/04/12 12:54:36;;;;;;;0.77;0.60;;;;;;;;;;5082467;28;20043;-60
2023/04/12 12:57:03;;;;;;;2.65;0.80;;;;;;;;;;5084311;28;20129;-58
2023/04/12 12:59:29;;;;;;;1.05;0.60;;;;;;;;;;5082595;28;20040;-59
2023/04/12 13:01:55;;;;;;;3.00;0.80;;;;;;;;;;5081665;28;20073;-59
2023/04/12 13:04:21;;;;;;;2.42;1.02;;;;;;;;;;5084674;28;20088;-59
2023/04/12 13:06:47;;;;;;;1.38;0.73;;;;;;;;;;5082857;28;20127;-59
2023/04/12 13:09:13;;;;;;;1.83;1.23;;;;;;;;;;5082302;28;20133;-58
2023/04/12 13:11:40;;;;;;;1.65;0.80;;;;;;;;;;5083601;28;20567;-58
2023/04/12 13:14:06;;;;;;;2.58;0.82;;;;;;;;;;5084346;27;20631;-59
2023/04/12 13:16:32;;;;;;;2.53;1.00;;;;;;;;;;5083414;28;20041;-59
2023/04/12 13:18:58;;;;;;;0.88;0.40;;;;;;;;;;5082425;28;20071;-59
2023/04/12 13:21:26;;;;;;;1.88;0.90;;;;;;;;;;5082760;28;20663;-59
2023/04/12 13:23:52;;;;;;;0.85;0.55;;;;;;;;;;5082211;28;20120;-59
2023/04/12 13:26:18;;;;;;;3.58;0.90;;;;;;;;;;5082991;28;20045;-59
2023/04/12 13:28:44;;;;;;;1.38;0.63;;;;;;;;;;5083768;28;20051;-59
2023/04/12 13:31:10;;;;;;;1.65;0.47;;;;;;;;;;5082863;28;20546;-59
2023/04/12 13:33:37;;;;;;;1.52;0.52;;;;;;;;;;5083696;28;20048;-59
2023/04/12 13:36:03;;;;;;;4.60;1.73;;;;;;;;;;5083205;28;20052;-59
2023/04/12 13:38:29;;;;;;;1.58;0.90;;;;;;;;;;5081878;28;20040;-59
2023/04/12 13:40:55;;;;;;;0.68;0.50;;;;;;;;;;5081700;28;20040;-59
2023/04/12 13:43:21;;;;;;;0.98;0.50;;;;;;;;;;5082183;28;20067;-59
2023/04/12 13:45:47;;;;;;;5.00;0.90;;;;;;;;;;5083307;28;20055;-59
2023/04/12 13:48:13;;;;;;;3.35;1.05;;;;;;;;;;5082618;28;20056;-59
2023/04/12 13:50:39;;;;;;;1.60;0.75;;;;;;;;;;5082752;28;20531;-59
2023/04/12 13:53:06;;;;;;;2.88;0.70;;;;;;;;;;5081598;28;20089;-59
2023/04/12 13:55:32;;;;;;;1.70;0.93;;;;;;;;;;5083670;28;20044;-59
2023/04/12 13:57:58;;;;;;;1.60;0.73;;;;;;;;;;5096984;27;20572;-60
2023/04/12 14:00:24;;;;;;;1.05;0.60;;;;;;;;;;5082637;28;20554;-60
2023/04/12 14:02:51;;;;;;;2.78;1.15;;;;;;;;;;5081463;28;20035;-60
2023/04/12 14:05:17;;;;;;;2.90;0.73;;;;;;;;;;5083290;28;20044;-59
2023/04/12 14:07:43;;;;;;;2.22;0.50;;;;;;;;;;5081051;28;20044;-59
2023/04/12 14:10:09;;;;;;;0.75;0.40;;;;;;;;;;5083913;28;20127;-59
2023/04/12 14:12:35;;;;;;;1.23;0.52;;;;;;;;;;5080657;28;21070;-60
2023/04/12 14:15:02;;;;;;;1.48;0.57;;;;;;;;;;5081050;28;20049;-59
2023/04/12 14:17:30;;;;;;;0.45;0.40;;;;;;;;;;5082857;27;20029;-59
2023/04/12 14:19:58;;;;;;;1.70;0.70;;;;;;;;;;5081829;28;20071;-59
2023/04/12 14:22:24;;;;;;;2.15;0.90;;;;;;;;;;5080770;28;20547;-59
2023/04/12 14:24:50;;;;;;;3.10;1.13;;;;;;;;;;5082014;27;20070;-59
2023/04/12 14:27:16;;;;;;;0.75;0.60;;;;;;;;;;5082366;28;20032;-59
2023/04/12 14:29:42;;;;;;;3.75;0.60;;;;;;;;;;5082805;28;20048;-60
2023/04/12 14:32:08;;;;;;;4.18;0.85;;;;;;;;;;5083891;28;21356;-60
2023/04/12 14:34:36;;;;;;;3.53;1.23;;;;;;;;;;5082886;28;20051;-58
2023/04/12 14:37:03;;;;;;;3.45;1.50;;;;;;;;;;5081584;28;20055;-57
2023/04/12 14:39:29;;;;;;;5.00;1.02;;;;;;;;;;5076944;28;20119;-59
2023/04/12 14:41:55;;;;;;;2.65;0.80;;;;;;;;;;5066434;28;20138;-57
2023/04/12 14:44:22;;;;;;;2.33;0.73;;;;;;;;;;5076857;28;20094;-58
2023/04/12 14:46:48;;;;;;;4.25;0.93;;;;;;;;;;5078129;28;20101;-58